CheckWX is a tool to help pilots better visualize weather data.  It is not intended as a substitute for an official pre-flight weather briefing.

23:34:41 UTC

KTVL TAF
Lake Tahoe Airport
South Lake Tahoe, California, USA
KTVL 181721Z 1818/1918 18009KT P6SM FEW080 BKN180 FM190200 17005KT P6SM SCT080 BKN150 FM191600 19011G20KT P6SM SCT060 BKN120 WS020/26040KT

Oct-18@
18:00 UTC

Oct-18 @ 18:00 UTC

Oct-19@
02:00 UTC

Oct-19 @ 02:00 UTC

KTVL 181721Z 1818/1918 18009KT P6SM FEW080 BKN180
Wind
  • 180° at 9 KTS
Cloud Levels
  • Few at 8,000' AGL
  • Broken at 18,000' AGL

Oct-19@
02:00 UTC

Oct-19 @ 02:00 UTC

Oct-19@
16:00 UTC

Oct-19 @ 16:00 UTC

FM190200 17005KT P6SM SCT080 BKN150

From

From Standard forecast or significant change

Wind
  • 170° at 5 KTS
Cloud Levels
  • Scattered at 8,000' AGL
  • Broken at 15,000' AGL

Oct-19@
16:00 UTC

Oct-19 @ 16:00 UTC

Oct-19@
18:00 UTC

Oct-19 @ 18:00 UTC

FM191600 19011G20KT P6SM SCT060 BKN120 WS020/26040KT

From

From Standard forecast or significant change

Wind
  • 190° at 11 KTS
  • {Gusting to 20 KTS
Cloud Levels
  • Scattered at 6,000' AGL
  • Broken at 12,000' AGL